createdAt,value
2023-07-05T00:00:07.261Z,1.80
2023-07-05T00:02:33.729Z,1.90
2023-07-05T00:05:00.261Z,2.10
2023-07-05T00:07:26.630Z,1.87
2023-07-05T00:09:53.061Z,1.70
2023-07-05T00:12:21.257Z,1.70
2023-07-05T00:14:47.924Z,2.23
2023-07-05T00:17:14.781Z,2.40
2023-07-05T00:19:42.370Z,1.60
2023-07-05T00:22:08.771Z,1.60
2023-07-05T00:24:35.635Z,1.70
2023-07-05T00:27:02.108Z,1.90
2023-07-05T00:29:28.494Z,2.10
2023-07-05T00:31:54.920Z,2.13
2023-07-05T00:34:21.429Z,2.23
2023-07-05T00:36:47.808Z,2.13
2023-07-05T00:39:14.181Z,2.00
2023-07-05T00:41:41.279Z,2.13
2023-07-05T00:44:07.761Z,1.97
2023-07-05T00:46:36.007Z,1.70
2023-07-05T00:49:15.413Z,2.37
2023-07-05T00:51:47.090Z,2.03
2023-07-05T00:54:17.551Z,1.80
2023-07-05T00:56:51.807Z,2.00
2023-07-05T00:59:19.874Z,1.73
2023-07-05T01:02:01.497Z,1.70
2023-07-05T01:04:33.578Z,2.20
2023-07-05T01:07:00.125Z,1.80
2023-07-05T01:09:29.398Z,2.00
2023-07-05T01:12:04.880Z,1.80
2023-07-05T01:14:52.820Z,2.70
2023-07-05T01:17:30.674Z,2.00
2023-07-05T01:20:14.894Z,1.90
2023-07-05T01:23:17.153Z,2.10
2023-07-05T01:25:58.851Z,2.27
2023-07-05T01:28:42.979Z,1.83
2023-07-05T01:31:09.361Z,2.40
2023-07-05T01:33:39.458Z,2.50
2023-07-05T01:36:06.597Z,2.30
2023-07-05T01:38:33.003Z,2.30
2023-07-05T01:41:04.185Z,2.60
2023-07-05T01:43:33.801Z,1.90
2023-07-05T01:46:32.657Z,2.10
2023-07-05T01:49:12.779Z,2.30
2023-07-05T01:52:07.076Z,2.40
2023-07-05T01:55:02.114Z,2.60
2023-07-05T01:57:34.680Z,2.63
2023-07-05T02:00:08.426Z,2.40
2023-07-05T02:02:39.630Z,2.60
2023-07-05T02:05:09.154Z,2.60
2023-07-05T02:07:35.929Z,2.43
2023-07-05T02:10:02.538Z,2.30
2023-07-05T02:12:30.297Z,2.53
2023-07-05T02:14:57.142Z,2.30
2023-07-05T02:17:24.104Z,2.60
2023-07-05T02:19:50.923Z,2.40
2023-07-05T02:22:17.463Z,2.20
2023-07-05T02:24:43.888Z,2.17
2023-07-05T02:27:10.375Z,2.63
2023-07-05T02:29:36.801Z,2.73
2023-07-05T02:32:03.608Z,2.50
2023-07-05T02:34:30.524Z,2.47
2023-07-05T02:36:56.888Z,2.43
2023-07-05T02:39:23.262Z,2.67
2023-07-05T02:41:49.696Z,2.63
2023-07-05T02:44:16.146Z,2.50
2023-07-05T02:46:42.581Z,2.40
2023-07-05T02:49:08.983Z,2.63
2023-07-05T02:51:35.647Z,2.70
2023-07-05T02:54:02.063Z,2.23
2023-07-05T02:56:28.477Z,2.63
2023-07-05T02:58:54.901Z,2.60
2023-07-05T03:01:21.390Z,3.17
2023-07-05T03:03:47.846Z,2.70
2023-07-05T03:06:14.241Z,3.30
2023-07-05T03:08:40.634Z,3.10
2023-07-05T03:11:06.998Z,2.83
2023-07-05T03:13:34.911Z,3.00
2023-07-05T03:16:02.175Z,3.00
2023-07-05T03:18:29.585Z,2.87
2023-07-05T03:20:56.261Z,2.27
2023-07-05T03:23:22.677Z,3.00
2023-07-05T03:26:00.326Z,2.63
2023-07-05T03:28:32.552Z,3.10
2023-07-05T03:31:02.253Z,3.03
2023-07-05T03:33:29.878Z,3.13
2023-07-05T03:36:01.214Z,3.17
2023-07-05T03:38:29.909Z,2.53
2023-07-05T03:40:57.930Z,3.17
2023-07-05T03:43:26.190Z,2.83
2023-07-05T03:45:54.044Z,3.50
2023-07-05T03:48:22.302Z,3.00
2023-07-05T03:50:48.902Z,3.00
2023-07-05T03:53:15.371Z,3.40
2023-07-05T03:55:41.908Z,3.30
2023-07-05T03:58:08.384Z,2.70
2023-07-05T04:00:34.759Z,3.60
2023-07-05T04:03:01.222Z,3.13
2023-07-05T04:05:27.650Z,3.00
2023-07-05T04:07:54.039Z,3.00
2023-07-05T04:10:20.454Z,3.73
2023-07-05T04:12:46.826Z,3.43
2023-07-05T04:15:13.283Z,3.07
2023-07-05T04:17:39.783Z,2.97
2023-07-05T04:20:07.050Z,3.50
2023-07-05T04:22:36.251Z,2.83
2023-07-05T04:25:03.190Z,3.53
2023-07-05T04:27:29.694Z,3.23
2023-07-05T04:29:56.125Z,3.63
2023-07-05T04:32:22.552Z,3.50
2023-07-05T04:34:49.003Z,3.87
2023-07-05T04:37:19.509Z,3.80
2023-07-05T04:39:52.077Z,2.90
2023-07-05T04:42:18.446Z,4.13
2023-07-05T04:44:44.813Z,3.50
2023-07-05T04:47:11.191Z,3.27
2023-07-05T04:49:37.566Z,3.47
2023-07-05T04:52:04.161Z,3.40
2023-07-05T04:54:30.504Z,3.70
2023-07-05T04:56:56.921Z,4.40
2023-07-05T04:59:23.300Z,3.60
2023-07-05T05:01:49.721Z,3.47
2023-07-05T05:04:16.315Z,3.53
2023-07-05T05:06:42.708Z,2.97
2023-07-05T05:09:09.079Z,3.40
2023-07-05T05:11:35.419Z,3.60
2023-07-05T05:14:01.888Z,9.20
2023-07-05T05:16:28.432Z,16.13
2023-07-05T05:18:54.875Z,5.40
2023-07-05T05:21:21.230Z,4.77
2023-07-05T05:23:47.605Z,3.50
2023-07-05T05:26:13.997Z,3.70
2023-07-05T05:28:40.337Z,3.43
2023-07-05T05:31:10.072Z,3.10
2023-07-05T05:33:37.667Z,2.80
2023-07-05T05:36:04.674Z,3.47
2023-07-05T05:38:31.252Z,3.33
2023-07-05T05:41:03.033Z,4.10
2023-07-05T05:43:29.440Z,3.73
2023-07-05T05:45:55.859Z,3.60
2023-07-05T05:48:22.422Z,3.87
2023-07-05T05:50:49.539Z,4.63
2023-07-05T05:53:15.949Z,4.53
2023-07-05T05:55:42.370Z,4.40
2023-07-05T05:58:09.627Z,4.53
2023-07-05T06:00:37.497Z,4.10
2023-07-05T06:03:04.434Z,4.10
2023-07-05T06:05:32.647Z,4.27
2023-07-05T06:07:59.364Z,3.60
2023-07-05T06:10:25.754Z,3.83
2023-07-05T06:12:52.166Z,3.87
2023-07-05T06:15:18.555Z,3.63
2023-07-05T06:17:45.068Z,3.43
2023-07-05T06:20:12.989Z,4.37
2023-07-05T06:22:39.687Z,3.57
2023-07-05T06:25:06.307Z,3.97
2023-07-05T06:27:33.845Z,3.60
2023-07-05T06:30:00.753Z,3.53
2023-07-05T06:32:27.384Z,3.37
2023-07-05T06:34:53.795Z,3.90
2023-07-05T06:37:20.234Z,4.50
2023-07-05T06:39:46.638Z,3.33
2023-07-05T06:42:13.005Z,4.33
2023-07-05T06:44:39.405Z,4.20
2023-07-05T06:47:05.940Z,4.63
2023-07-05T06:49:32.879Z,3.87
2023-07-05T06:51:59.279Z,4.50
2023-07-05T06:54:25.671Z,3.80
2023-07-05T06:56:52.264Z,4.10
2023-07-05T06:59:18.635Z,3.70
2023-07-05T07:01:45.081Z,3.83
2023-07-05T07:04:11.559Z,3.80
2023-07-05T07:06:37.942Z,4.17
2023-07-05T07:09:06.770Z,4.40
2023-07-05T07:11:33.497Z,3.53
2023-07-05T07:13:59.915Z,4.30
2023-07-05T07:16:26.893Z,4.37
2023-07-05T07:18:53.654Z,4.13
2023-07-05T07:21:20.442Z,3.50
2023-07-05T07:23:48.449Z,3.93
2023-07-05T07:26:19.061Z,3.57
2023-07-05T07:28:51.491Z,4.00
2023-07-05T07:31:30.233Z,4.37
2023-07-05T07:33:57.552Z,4.80
2023-07-05T07:36:27.205Z,3.90
2023-07-05T07:38:54.210Z,4.67
2023-07-05T07:41:23.298Z,4.50
2023-07-05T07:43:55.024Z,4.37
2023-07-05T07:46:24.974Z,3.90
2023-07-05T07:48:55.087Z,4.67
2023-07-05T07:51:37.682Z,3.90
2023-07-05T07:54:08.356Z,2.70
2023-07-05T07:56:35.787Z,2.20
2023-07-05T07:59:02.492Z,2.07
2023-07-05T08:01:34.800Z,2.20
2023-07-05T08:04:04.879Z,2.30
2023-07-05T08:06:38.484Z,1.80
2023-07-05T08:09:06.724Z,2.10
2023-07-05T08:11:34.391Z,1.70
2023-07-05T08:16:29.315Z,2.33
2023-07-05T08:18:55.948Z,1.87
2023-07-05T08:21:22.333Z,1.43
2023-07-05T08:23:48.871Z,1.70
2023-07-05T08:26:15.866Z,1.60
2023-07-05T08:28:42.729Z,1.60
2023-07-05T08:31:09.915Z,1.83
2023-07-05T08:33:38.107Z,1.90
2023-07-05T08:36:13.694Z,2.20
2023-07-05T08:38:43.973Z,1.60
2023-07-05T08:41:48.250Z,2.17
2023-07-05T08:44:33.192Z,2.10
2023-07-05T08:47:02.481Z,1.80
2023-07-05T08:49:40.587Z,1.63
2023-07-05T08:52:23.272Z,1.47
2023-07-05T08:54:53.014Z,1.90
2023-07-05T08:57:26.814Z,1.70
2023-07-05T09:00:00.432Z,1.80
2023-07-05T09:02:28.293Z,1.30
2023-07-05T09:04:59.017Z,1.60
2023-07-05T09:08:02.636Z,2.10
2023-07-05T09:10:38.987Z,2.03
2023-07-05T09:13:39.679Z,1.50
2023-07-05T09:16:27.541Z,2.07
2023-07-05T09:19:09.798Z,1.57
2023-07-05T09:21:42.617Z,1.73
2023-07-05T09:24:17.806Z,1.90
2023-07-05T09:26:55.057Z,1.73
2023-07-05T09:29:39.467Z,1.70
2023-07-05T09:32:20.208Z,3.10
2023-07-05T09:34:51.301Z,1.70
2023-07-05T09:37:23.450Z,1.73
2023-07-05T09:40:16.134Z,1.80
2023-07-05T09:42:59.801Z,1.80
2023-07-05T09:45:27.295Z,1.73
2023-07-05T09:47:59.803Z,1.90
2023-07-05T09:50:26.943Z,1.80
2023-07-05T09:53:15.830Z,2.00
2023-07-05T09:56:07.133Z,2.17
2023-07-05T09:58:34.874Z,2.17
2023-07-05T10:01:06.079Z,2.00
2023-07-05T10:03:37.929Z,2.13
2023-07-05T10:06:10.597Z,2.40
2023-07-05T10:08:49.801Z,2.03
2023-07-05T10:11:21.332Z,2.33
2023-07-05T10:13:50.050Z,2.13
2023-07-05T10:16:17.684Z,2.30
2023-07-05T10:18:44.850Z,3.27
2023-07-05T10:21:20.247Z,2.10
2023-07-05T10:23:48.182Z,2.43
2023-07-05T10:26:18.004Z,2.30
2023-07-05T10:28:44.504Z,2.50
2023-07-05T10:31:26.843Z,2.50
2023-07-05T10:34:05.685Z,2.20
2023-07-05T10:36:32.162Z,1.93
2023-07-05T10:38:58.572Z,2.73
2023-07-05T10:41:33.008Z,2.60
2023-07-05T10:44:08.013Z,2.23
2023-07-05T10:46:37.734Z,3.07
2023-07-05T10:49:10.449Z,2.67
2023-07-05T10:51:41.836Z,2.93
2023-07-05T10:54:37.096Z,2.90
2023-07-05T10:57:17.115Z,3.40
2023-07-05T10:59:46.443Z,3.13
2023-07-05T11:02:13.055Z,2.60
2023-07-05T11:04:44.129Z,2.83
2023-07-05T11:07:13.737Z,2.63
2023-07-05T11:09:41.884Z,3.10
2023-07-05T11:12:21.301Z,2.90
2023-07-05T11:14:48.578Z,3.60
2023-07-05T11:17:26.937Z,3.20
2023-07-05T11:19:53.395Z,2.97
2023-07-05T11:22:40.004Z,3.23
2023-07-05T11:25:10.844Z,2.77
2023-07-05T11:27:50.364Z,2.93
2023-07-05T11:30:44.213Z,2.90
2023-07-05T11:33:10.653Z,3.27
2023-07-05T11:35:56.457Z,3.20
2023-07-05T11:38:45.635Z,2.67
2023-07-05T11:41:24.410Z,3.10
2023-07-05T11:44:03.139Z,3.40
2023-07-05T11:46:38.875Z,3.70
2023-07-05T11:49:26.364Z,3.40
2023-07-05T11:51:58.101Z,3.53
2023-07-05T11:54:39.030Z,4.00
2023-07-05T11:57:10.360Z,3.90
2023-07-05T11:59:43.562Z,3.87
2023-07-05T12:02:23.406Z,3.53
2023-07-05T12:04:54.665Z,3.10
2023-07-05T12:07:23.241Z,4.20
2023-07-05T12:09:50.222Z,4.00
2023-07-05T12:12:21.890Z,3.90
2023-07-05T12:14:48.322Z,4.30
2023-07-05T12:17:17.510Z,4.63
2023-07-05T12:19:44.463Z,3.90
2023-07-05T12:22:20.240Z,4.37
2023-07-05T12:24:51.812Z,4.50
2023-07-05T12:27:31.614Z,3.80
2023-07-05T12:30:00.587Z,3.53
2023-07-05T12:32:29.587Z,5.20
2023-07-05T12:35:11.297Z,3.70
2023-07-05T12:37:37.784Z,3.77
2023-07-05T12:40:18.039Z,3.70
2023-07-05T12:42:55.181Z,4.03
2023-07-05T12:45:26.498Z,4.03
2023-07-05T12:47:54.105Z,3.53
2023-07-05T12:50:22.730Z,3.93
2023-07-05T12:53:07.683Z,3.47
2023-07-05T12:55:38.014Z,3.80
2023-07-05T12:58:07.267Z,4.00
2023-07-05T13:00:35.441Z,3.83
2023-07-05T13:03:05.233Z,3.90
2023-07-05T13:05:31.889Z,4.00
2023-07-05T13:08:01.938Z,3.93
2023-07-05T13:10:29.166Z,4.43
2023-07-05T13:12:59.496Z,4.03
2023-07-05T13:15:37.062Z,3.93
2023-07-05T13:18:21.699Z,3.40
2023-07-05T13:20:48.867Z,5.20
2023-07-05T13:23:15.305Z,3.70
2023-07-05T13:25:47.448Z,4.20
2023-07-05T13:28:25.543Z,5.00
2023-07-05T13:30:55.595Z,4.27
2023-07-05T13:33:22.417Z,4.27
2023-07-05T13:35:48.913Z,5.47
2023-07-05T13:38:15.604Z,4.20
2023-07-05T13:40:55.406Z,5.20
2023-07-05T13:43:22.148Z,4.40
2023-07-05T13:45:50.386Z,4.50
2023-07-05T13:48:16.877Z,4.17
2023-07-05T13:50:43.362Z,4.70
2023-07-05T13:53:21.759Z,5.50
2023-07-05T13:55:48.382Z,5.53
2023-07-05T13:58:17.005Z,4.80
2023-07-05T14:00:47.104Z,5.33
2023-07-05T14:03:15.032Z,4.90
2023-07-05T14:05:41.612Z,5.57
2023-07-05T14:08:16.016Z,4.93
2023-07-05T14:10:48.596Z,5.40
2023-07-05T14:13:17.044Z,4.43
2023-07-05T14:15:45.471Z,4.90
2023-07-05T14:18:17.861Z,4.77
2023-07-05T14:20:45.109Z,5.23
2023-07-05T14:23:16.526Z,5.97
2023-07-05T14:25:48.768Z,5.23
2023-07-05T14:28:15.413Z,6.90
2023-07-05T14:30:43.121Z,5.30
2023-07-05T14:33:22.277Z,5.83
2023-07-05T14:35:48.943Z,5.37
2023-07-05T14:38:15.338Z,4.80
2023-07-05T14:40:45.527Z,5.57
2023-07-05T14:43:12.612Z,5.60
2023-07-05T14:45:39.289Z,6.00
2023-07-05T14:48:06.401Z,7.50
2023-07-05T14:50:35.075Z,5.10
2023-07-05T14:53:05.413Z,5.90
2023-07-05T14:55:32.103Z,6.07
2023-07-05T14:57:59.498Z,6.23
2023-07-05T15:00:32.969Z,5.57
2023-07-05T15:03:07.820Z,5.43
2023-07-05T15:05:34.682Z,5.87
2023-07-05T15:08:03.732Z,5.93
2023-07-05T15:10:31.121Z,5.20
2023-07-05T15:13:00.055Z,6.80
2023-07-05T15:15:32.718Z,6.93
2023-07-05T15:17:59.100Z,6.20
2023-07-05T15:20:27.128Z,6.20
2023-07-05T15:22:54.049Z,5.33
2023-07-05T15:25:21.776Z,5.77
2023-07-05T15:27:50.885Z,5.40
2023-07-05T15:30:17.909Z,6.00
2023-07-05T15:32:45.178Z,5.50
2023-07-05T15:35:14.814Z,5.60
2023-07-05T15:37:41.265Z,6.20
2023-07-05T15:40:11.508Z,5.53
2023-07-05T15:42:38.538Z,6.17
2023-07-05T15:45:06.831Z,4.80
2023-07-05T15:47:35.643Z,5.97
2023-07-05T15:50:04.495Z,5.83
2023-07-05T15:52:33.652Z,5.30
2023-07-05T15:55:00.036Z,5.77
2023-07-05T15:57:27.341Z,6.30
2023-07-05T16:00:04.518Z,6.03
2023-07-05T16:02:41.473Z,5.60
2023-07-05T16:05:10.341Z,6.17
2023-07-05T16:07:36.787Z,7.37
2023-07-05T16:10:03.293Z,6.63
2023-07-05T16:12:29.667Z,6.17
2023-07-05T16:14:56.474Z,6.00
2023-07-05T16:17:22.868Z,5.07
2023-07-05T16:19:49.387Z,6.03
2023-07-05T16:22:15.760Z,5.30
2023-07-05T16:24:42.215Z,6.13
2023-07-05T16:27:08.695Z,5.87
2023-07-05T16:29:36.159Z,5.63
2023-07-05T16:32:06.621Z,5.27
2023-07-05T16:34:33.003Z,4.93
2023-07-05T16:36:59.356Z,5.10
2023-07-05T16:39:25.832Z,5.40
2023-07-05T16:41:52.200Z,6.10
2023-07-05T16:44:19.452Z,5.83
2023-07-05T16:46:47.136Z,5.70
2023-07-05T16:49:13.595Z,5.30
2023-07-05T16:51:39.985Z,4.67
2023-07-05T16:54:07.646Z,5.20
2023-07-05T16:56:34.019Z,5.60
2023-07-05T16:59:00.400Z,5.60
2023-07-05T17:01:26.825Z,4.77
2023-07-05T17:03:53.272Z,5.20
2023-07-05T17:06:19.880Z,4.47
2023-07-05T17:08:46.300Z,4.83
2023-07-05T17:11:13.277Z,4.50
2023-07-05T17:13:39.818Z,3.73
2023-07-05T17:16:06.311Z,4.80
2023-07-05T17:18:34.397Z,5.20
2023-07-05T17:21:03.690Z,4.53
2023-07-05T17:23:30.669Z,6.40
2023-07-05T17:25:59.857Z,4.40
2023-07-05T17:28:33.031Z,4.13
2023-07-05T17:31:03.955Z,4.50
2023-07-05T17:33:32.397Z,4.80
2023-07-05T17:35:59.648Z,4.63
2023-07-05T17:38:26.894Z,4.37
2023-07-05T17:40:53.422Z,4.30
2023-07-05T17:43:19.913Z,4.50
2023-07-05T17:45:46.576Z,4.33
2023-07-05T17:48:13.033Z,4.50
2023-07-05T17:50:40.654Z,4.10
2023-07-05T17:53:07.743Z,4.50
2023-07-05T17:55:34.573Z,4.57
2023-07-05T17:58:02.162Z,4.10
2023-07-05T18:00:28.639Z,4.17
2023-07-05T18:02:55.319Z,4.60
2023-07-05T18:05:22.228Z,3.77
2023-07-05T18:07:48.609Z,4.10
2023-07-05T18:10:16.115Z,3.80
2023-07-05T18:12:42.540Z,4.20
2023-07-05T18:15:09.344Z,4.20
2023-07-05T18:17:36.382Z,3.70
2023-07-05T18:20:03.797Z,4.60
2023-07-05T18:22:30.170Z,4.60
2023-07-05T18:24:56.584Z,4.70
2023-07-05T18:27:22.981Z,4.80
2023-07-05T18:29:49.342Z,4.77
2023-07-05T18:32:15.709Z,5.50
2023-07-05T18:34:42.534Z,5.70
2023-07-05T18:37:09.337Z,5.60
2023-07-05T18:39:36.973Z,5.60
2023-07-05T18:42:03.467Z,5.90
2023-07-05T18:44:30.039Z,5.50
2023-07-05T18:46:56.449Z,5.30
2023-07-05T18:49:23.188Z,5.93
2023-07-05T18:51:49.676Z,7.40
2023-07-05T18:54:16.064Z,6.20
2023-07-05T18:56:42.815Z,5.43
2023-07-05T18:59:13.731Z,6.27
2023-07-05T19:01:40.731Z,5.47
2023-07-05T19:04:07.365Z,5.00
2023-07-05T19:06:33.801Z,5.50
2023-07-05T19:09:00.628Z,5.00
2023-07-05T19:11:29.012Z,5.47
2023-07-05T19:13:55.606Z,5.27
2023-07-05T19:16:25.382Z,6.43
2023-07-05T19:18:51.962Z,8.87
2023-07-05T19:21:19.814Z,8.77
2023-07-05T19:23:49.959Z,6.10
2023-07-05T19:26:18.654Z,6.87
2023-07-05T19:28:50.240Z,6.33
2023-07-05T19:31:31.294Z,7.80
2023-07-05T19:33:57.730Z,12.60
2023-07-05T19:36:26.246Z,6.77
2023-07-05T19:38:53.535Z,5.60
2023-07-05T19:41:21.068Z,5.97
2023-07-05T19:43:50.444Z,7.93
2023-07-05T19:46:23.867Z,7.30
2023-07-05T19:48:53.525Z,11.67
2023-07-05T19:51:19.875Z,7.37
2023-07-05T19:53:46.301Z,5.93
2023-07-05T19:56:15.162Z,6.20
2023-07-05T19:58:42.745Z,5.50
2023-07-05T20:01:10.127Z,10.67
2023-07-05T20:03:36.576Z,9.57
2023-07-05T20:06:04.309Z,25.30
2023-07-05T20:08:30.866Z,19.67
2023-07-05T20:11:08.066Z,8.83
2023-07-05T20:13:34.615Z,7.10
2023-07-05T20:16:01.115Z,6.67
2023-07-05T20:18:27.652Z,6.10
2023-07-05T20:21:00.519Z,6.40
2023-07-05T20:23:35.456Z,6.10
2023-07-05T20:26:01.852Z,5.63
2023-07-05T20:28:28.339Z,5.93
2023-07-05T20:30:58.304Z,5.83
2023-07-05T20:33:29.494Z,6.70
2023-07-05T20:36:00.446Z,6.47
2023-07-05T20:38:28.209Z,6.20
2023-07-05T20:40:56.410Z,5.73
2023-07-05T20:43:22.850Z,6.53
2023-07-05T20:45:57.999Z,5.97
2023-07-05T20:48:24.735Z,5.60
2023-07-05T20:51:11.870Z,5.70
2023-07-05T20:53:39.970Z,8.90
2023-07-05T20:56:06.714Z,12.40
2023-07-05T20:58:34.479Z,13.17
2023-07-05T21:01:02.351Z,8.30
2023-07-05T21:03:29.762Z,8.70
2023-07-05T21:05:56.869Z,7.10
2023-07-05T21:08:24.196Z,6.70
2023-07-05T21:10:53.059Z,6.67
2023-07-05T21:13:22.065Z,6.63
2023-07-05T21:15:49.234Z,7.40
2023-07-05T21:18:16.226Z,6.53
2023-07-05T21:20:45.611Z,6.90
2023-07-05T21:23:13.633Z,5.60
2023-07-05T21:25:40.070Z,6.27
2023-07-05T21:28:06.670Z,6.50
2023-07-05T21:30:33.370Z,5.87
2023-07-05T21:33:00.449Z,6.50
2023-07-05T21:35:30.735Z,6.00
2023-07-05T21:38:00.658Z,6.23
2023-07-05T21:40:30.815Z,6.20
2023-07-05T21:42:57.390Z,5.80
2023-07-05T21:45:26.674Z,6.43
2023-07-05T21:47:53.466Z,5.70
2023-07-05T21:50:21.421Z,5.50
2023-07-05T21:52:49.144Z,4.93
2023-07-05T21:55:16.329Z,5.53
2023-07-05T21:57:43.225Z,5.23
2023-07-05T22:00:10.471Z,5.17
2023-07-05T22:02:37.146Z,5.50
2023-07-05T22:05:04.076Z,6.23
2023-07-05T22:07:30.776Z,6.13
2023-07-05T22:09:57.925Z,5.53
2023-07-05T22:12:27.208Z,5.67
2023-07-05T22:15:00.447Z,5.97
2023-07-05T22:17:27.414Z,5.87
2023-07-05T22:19:56.676Z,5.67
2023-07-05T22:22:23.440Z,6.13
2023-07-05T22:24:49.821Z,5.43
2023-07-05T22:27:16.503Z,5.00
2023-07-05T22:29:42.932Z,6.57
2023-07-05T22:32:09.953Z,5.53
2023-07-05T22:34:36.416Z,5.90
2023-07-05T22:37:02.889Z,6.97
2023-07-05T22:39:29.279Z,5.77
2023-07-05T22:41:55.648Z,5.60
2023-07-05T22:44:23.113Z,5.50
2023-07-05T22:46:49.578Z,5.73
2023-07-05T22:49:16.018Z,5.50
2023-07-05T22:51:42.387Z,5.87
2023-07-05T22:54:08.765Z,5.67
2023-07-05T22:56:35.115Z,6.27
2023-07-05T22:59:01.639Z,5.43
2023-07-05T23:01:28.091Z,5.97
2023-07-05T23:03:54.705Z,6.40
2023-07-05T23:06:22.471Z,6.23
2023-07-05T23:08:48.855Z,6.50
2023-07-05T23:11:15.278Z,6.23
2023-07-05T23:13:44.496Z,6.87
2023-07-05T23:16:16.711Z,5.67
2023-07-05T23:18:45.897Z,5.63
2023-07-05T23:21:14.337Z,6.17
2023-07-05T23:23:40.824Z,5.30
2023-07-05T23:26:14.527Z,6.50
2023-07-05T23:28:40.974Z,5.70
2023-07-05T23:31:14.831Z,6.80
2023-07-05T23:33:41.253Z,6.50
2023-07-05T23:36:08.204Z,5.83
2023-07-05T23:38:34.596Z,5.90
2023-07-05T23:41:01.716Z,5.43
2023-07-05T23:43:30.185Z,6.00
2023-07-05T23:45:58.413Z,5.70
2023-07-05T23:48:27.798Z,5.57
2023-07-05T23:50:54.157Z,6.00
2023-07-05T23:53:21.824Z,5.90
2023-07-05T23:55:54.101Z,5.80
2023-07-05T23:58:27.710Z,5.63
